createdAt,value
2022-07-25T00:00:59.007Z,9.763161
2022-07-25T00:01:59.133Z,9.763070
2022-07-25T00:02:58.983Z,9.762737
2022-07-25T00:03:59.009Z,9.762502
2022-07-25T00:04:59.017Z,9.762963
2022-07-25T00:05:58.951Z,9.763244
2022-07-25T00:06:58.946Z,9.763060
2022-07-25T00:07:58.938Z,9.763027
2022-07-25T00:08:58.934Z,9.762837
2022-07-25T00:09:58.913Z,9.762867
2022-07-25T00:10:58.901Z,9.763083
2022-07-25T00:11:58.892Z,9.763187
2022-07-25T00:12:58.879Z,9.763063
2022-07-25T00:13:59.885Z,9.763180
2022-07-25T00:14:58.872Z,9.762741
2022-07-25T00:15:58.905Z,9.763072
2022-07-25T00:16:58.841Z,9.762687
2022-07-25T00:17:58.843Z,9.762687
2022-07-25T00:18:58.875Z,9.762687
2022-07-25T00:19:58.812Z,9.762687
2022-07-25T00:20:58.805Z,9.762687
2022-07-25T00:21:58.790Z,9.762687
2022-07-25T00:22:58.786Z,9.762687
2022-07-25T00:23:58.781Z,9.762687
2022-07-25T00:24:58.764Z,9.762687
2022-07-25T00:25:58.759Z,9.762687
2022-07-25T00:26:58.769Z,9.762687
2022-07-25T00:27:58.733Z,9.762687
2022-07-25T00:28:58.734Z,9.762687
2022-07-25T00:29:58.714Z,9.762687
2022-07-25T00:30:58.767Z,9.762687
2022-07-25T00:31:58.700Z,9.762793
2022-07-25T00:32:58.690Z,9.762650
2022-07-25T00:33:58.683Z,9.762481
2022-07-25T00:34:58.667Z,9.763149
2022-07-25T00:35:58.655Z,9.762907
2022-07-25T00:36:58.644Z,9.762795
2022-07-25T00:37:58.643Z,9.762964
2022-07-25T00:38:58.637Z,9.762905
2022-07-25T00:39:58.618Z,9.762861
2022-07-25T00:40:58.613Z,9.762932
2022-07-25T00:41:58.598Z,9.762568
2022-07-25T00:42:58.591Z,9.762723
2022-07-25T00:43:58.598Z,9.762761
2022-07-25T00:44:58.578Z,9.762871
2022-07-25T00:45:58.751Z,9.762875
2022-07-25T00:46:58.681Z,9.762585
2022-07-25T00:47:58.545Z,9.762574
2022-07-25T00:48:58.604Z,9.762800
2022-07-25T00:49:58.520Z,9.762755
2022-07-25T00:50:58.510Z,9.762820
2022-07-25T00:51:58.499Z,9.762900
2022-07-25T00:52:58.495Z,9.762835
2022-07-25T00:53:58.503Z,9.762652
2022-07-25T00:54:58.473Z,9.762560
2022-07-25T00:55:58.460Z,9.762903
2022-07-25T00:56:58.447Z,9.763100
2022-07-25T00:57:58.439Z,9.762650
2022-07-25T00:58:58.443Z,9.762849
2022-07-25T00:59:58.416Z,9.762717
2022-07-25T01:00:58.410Z,9.762759
2022-07-25T01:01:58.459Z,9.762921
2022-07-25T01:02:58.649Z,9.762929
2022-07-25T01:03:58.403Z,9.762523
2022-07-25T01:04:58.378Z,9.762692
2022-07-25T01:05:58.370Z,9.762650
2022-07-25T01:06:58.348Z,9.762601
2022-07-25T01:07:59.351Z,9.762759
2022-07-25T01:08:58.347Z,9.763178
2022-07-25T01:09:58.326Z,9.763047
2022-07-25T01:10:58.322Z,9.762806
2022-07-25T01:11:58.313Z,9.762956
2022-07-25T01:12:58.298Z,9.762425
2022-07-25T01:13:58.308Z,9.762676
2022-07-25T01:14:58.284Z,9.763053
2022-07-25T01:15:58.336Z,9.763048
2022-07-25T01:16:58.266Z,9.763181
2022-07-25T01:17:58.258Z,9.762911
2022-07-25T01:18:58.259Z,9.762863
2022-07-25T01:19:58.227Z,9.762910
2022-07-25T01:20:58.230Z,9.762847
2022-07-25T01:21:58.208Z,9.762920
2022-07-25T01:22:58.194Z,9.762860
2022-07-25T01:23:58.189Z,9.762947
2022-07-25T01:24:58.191Z,9.762434
2022-07-25T01:25:58.177Z,9.762771
2022-07-25T01:26:58.161Z,9.762771
2022-07-25T01:27:58.152Z,9.762835
2022-07-25T01:28:58.145Z,9.762870
2022-07-25T01:29:58.141Z,9.762870
2022-07-25T01:30:58.145Z,9.762780
2022-07-25T01:31:58.110Z,9.763141
2022-07-25T01:32:58.101Z,9.763017
2022-07-25T01:33:58.089Z,9.762869
2022-07-25T01:34:58.092Z,9.762604
2022-07-25T01:35:58.061Z,9.762760
2022-07-25T01:36:58.074Z,9.762738
2022-07-25T01:37:58.050Z,9.762745
2022-07-25T01:38:58.037Z,9.762745
2022-07-25T01:39:58.051Z,9.762745
2022-07-25T01:40:58.019Z,9.762745
2022-07-25T01:41:58.006Z,9.762745
2022-07-25T01:42:57.997Z,9.762745
2022-07-25T01:43:57.983Z,9.762745
2022-07-25T01:44:57.992Z,9.762745
2022-07-25T01:45:58.020Z,9.762745
2022-07-25T01:46:57.942Z,9.762745
2022-07-25T01:47:58.951Z,9.762745
2022-07-25T01:48:57.984Z,9.762746
2022-07-25T01:49:57.940Z,9.762624
2022-07-25T01:50:57.916Z,9.762565
2022-07-25T01:51:57.910Z,9.764555
2022-07-25T01:52:57.909Z,9.762534
2022-07-25T01:53:57.888Z,9.762233
2022-07-25T01:54:57.902Z,9.762723
2022-07-25T01:55:57.866Z,9.762735
2022-07-25T01:56:57.856Z,9.762783
2022-07-25T01:57:57.847Z,9.762804
2022-07-25T01:58:57.837Z,9.762810
2022-07-25T01:59:57.836Z,9.762820
2022-07-25T02:00:57.854Z,9.762812
2022-07-25T02:01:57.879Z,9.762787
2022-07-25T02:02:57.798Z,9.762707
2022-07-25T02:03:57.792Z,9.762718
2022-07-25T02:04:57.903Z,9.762832
2022-07-25T02:05:57.766Z,9.762714
2022-07-25T02:06:58.759Z,9.762756
2022-07-25T02:07:57.748Z,9.762833
2022-07-25T02:08:57.741Z,9.762766
2022-07-25T02:09:57.738Z,9.762766
2022-07-25T02:10:57.718Z,9.762766
2022-07-25T02:11:57.708Z,9.762766
2022-07-25T02:12:57.697Z,9.762766
2022-07-25T02:13:57.701Z,9.762766
2022-07-25T02:14:57.692Z,9.762766
2022-07-25T02:15:57.671Z,9.762766
2022-07-25T02:16:57.717Z,9.762766
2022-07-25T02:17:57.644Z,9.762766
2022-07-25T02:18:57.637Z,9.762766
2022-07-25T02:19:57.642Z,9.762766
2022-07-25T02:20:57.622Z,9.762766
2022-07-25T02:21:57.610Z,9.762766
2022-07-25T02:22:57.596Z,9.762766
2022-07-25T02:23:57.592Z,9.762766
2022-07-25T02:24:57.592Z,9.762766
2022-07-25T02:25:57.564Z,9.762905
2022-07-25T02:26:57.554Z,9.762930
2022-07-25T02:27:57.551Z,9.762853
2022-07-25T02:28:57.534Z,9.762808
2022-07-25T02:29:57.542Z,9.762712
2022-07-25T02:30:57.583Z,9.762763
2022-07-25T02:31:57.515Z,9.762688
2022-07-25T02:32:57.498Z,9.762568
2022-07-25T02:33:57.487Z,9.762492
2022-07-25T02:34:57.490Z,9.762605
2022-07-25T02:35:57.465Z,9.762712
2022-07-25T02:36:57.457Z,9.762809
2022-07-25T02:37:57.451Z,9.762728
2022-07-25T02:38:57.434Z,9.762721
2022-07-25T02:39:57.434Z,9.762786
2022-07-25T02:40:57.415Z,9.762756
2022-07-25T02:41:57.412Z,9.762669
2022-07-25T02:42:57.397Z,9.762780
2022-07-25T02:43:57.380Z,9.762697
2022-07-25T02:44:58.396Z,9.762724
2022-07-25T02:45:57.460Z,9.762836
2022-07-25T02:46:57.359Z,9.762729
2022-07-25T02:47:57.349Z,9.762724
2022-07-25T02:48:57.397Z,9.762765
2022-07-25T02:49:57.341Z,9.762720
2022-07-25T02:50:57.321Z,9.762869
2022-07-25T02:51:57.302Z,9.762752
2022-07-25T02:52:57.291Z,9.762816
2022-07-25T02:53:58.691Z,9.762716
2022-07-25T02:54:58.287Z,9.762872
2022-07-25T02:55:57.268Z,9.762863
2022-07-25T02:56:57.257Z,9.762794
2022-07-25T02:57:57.243Z,9.762629
2022-07-25T02:58:57.242Z,9.762660
2022-07-25T02:59:57.242Z,9.762975
2022-07-25T03:00:57.253Z,9.761827
2022-07-25T03:01:57.208Z,9.761576
2022-07-25T03:02:57.194Z,9.762177
2022-07-25T03:03:57.266Z,9.762659
2022-07-25T03:04:57.182Z,9.762774
2022-07-25T03:05:57.168Z,9.763817
2022-07-25T03:06:57.158Z,9.763169
2022-07-25T03:07:57.147Z,9.762871
2022-07-25T03:08:57.132Z,9.762877
2022-07-25T03:09:57.137Z,9.762782
2022-07-25T03:10:57.113Z,9.762842
2022-07-25T03:11:57.097Z,9.762792
2022-07-25T03:12:57.090Z,9.762747
2022-07-25T03:13:57.088Z,9.762533
2022-07-25T03:14:57.083Z,9.762589
2022-07-25T03:15:57.071Z,9.762653
2022-07-25T03:16:57.094Z,9.762932
2022-07-25T03:17:57.041Z,9.762628
2022-07-25T03:18:57.032Z,9.762731
2022-07-25T03:19:57.048Z,9.762549
2022-07-25T03:20:57.015Z,9.763026
2022-07-25T03:21:57.003Z,9.763330
2022-07-25T03:22:56.991Z,9.762902
2022-07-25T03:23:56.989Z,9.762682
2022-07-25T03:24:56.970Z,9.762673
2022-07-25T03:25:56.977Z,9.762405
2022-07-25T03:26:56.952Z,9.762465
2022-07-25T03:27:56.958Z,9.762045
2022-07-25T03:28:56.933Z,9.762766
2022-07-25T03:29:56.928Z,9.762625
2022-07-25T03:30:56.927Z,9.760737
2022-07-25T03:31:56.924Z,9.753759
2022-07-25T03:32:56.895Z,9.753759
2022-07-25T03:33:56.885Z,9.762298
2022-07-25T03:34:56.871Z,9.762926
2022-07-25T03:35:56.870Z,9.762626
2022-07-25T03:36:56.854Z,9.762535
2022-07-25T03:37:56.854Z,9.762447
2022-07-25T03:38:56.833Z,9.762603
2022-07-25T03:39:56.821Z,9.762527
2022-07-25T03:40:56.824Z,9.762778
2022-07-25T03:41:56.801Z,9.762222
2022-07-25T03:42:56.803Z,9.763204
2022-07-25T03:43:56.784Z,9.762740
2022-07-25T03:44:56.776Z,9.762572
2022-07-25T03:45:56.880Z,9.763008
2022-07-25T03:46:56.752Z,9.763144
2022-07-25T03:47:56.746Z,9.763034
2022-07-25T03:48:56.787Z,9.762620
2022-07-25T03:49:56.723Z,9.762926
2022-07-25T03:50:56.729Z,9.762978
2022-07-25T03:51:56.711Z,9.762783
2022-07-25T03:52:56.700Z,9.762545
2022-07-25T03:53:56.688Z,9.762464
2022-07-25T03:54:56.681Z,9.762364
2022-07-25T03:55:56.678Z,9.762712
2022-07-25T03:56:56.656Z,9.762293
2022-07-25T03:57:56.647Z,9.762178
2022-07-25T03:58:56.631Z,9.762632
2022-07-25T03:59:56.626Z,9.762251
2022-07-25T04:00:56.685Z,9.761850
2022-07-25T04:01:56.646Z,9.762289
2022-07-25T04:02:56.611Z,9.762186
2022-07-25T04:03:56.590Z,9.762186
2022-07-25T04:04:56.573Z,9.762186
2022-07-25T04:05:56.591Z,9.762186
2022-07-25T04:06:56.553Z,9.762186
2022-07-25T04:07:56.550Z,9.762186
2022-07-25T04:08:56.536Z,9.762186
2022-07-25T04:09:56.526Z,9.762186
2022-07-25T04:10:56.529Z,9.762186
2022-07-25T04:11:56.503Z,9.762186
2022-07-25T04:12:56.503Z,9.762186
2022-07-25T04:13:56.485Z,9.762186
2022-07-25T04:14:56.475Z,9.762186
2022-07-25T04:15:56.473Z,9.762186
2022-07-25T04:16:56.482Z,9.762186
2022-07-25T04:17:56.453Z,9.762186
2022-07-25T04:18:56.874Z,9.762186
2022-07-25T04:19:56.657Z,9.762186
2022-07-25T04:20:56.435Z,9.762186
2022-07-25T04:21:56.406Z,9.762186
2022-07-25T04:22:56.460Z,9.762186
2022-07-25T04:23:56.400Z,9.762186
2022-07-25T04:24:56.407Z,9.762186
2022-07-25T04:25:56.404Z,9.762186
2022-07-25T04:26:56.360Z,9.762186
2022-07-25T04:27:56.352Z,9.762186
2022-07-25T04:28:56.342Z,9.762186
2022-07-25T04:29:56.344Z,9.762186
2022-07-25T04:30:56.328Z,9.762186
2022-07-25T04:31:56.381Z,9.762186
2022-07-25T04:32:56.306Z,9.762186
2022-07-25T04:33:56.297Z,9.762186
2022-07-25T04:34:56.289Z,9.762186
2022-07-25T04:35:57.310Z,9.762186
2022-07-25T04:36:56.266Z,9.762186
2022-07-25T04:37:56.260Z,9.762186
2022-07-25T04:38:56.246Z,9.762186
2022-07-25T04:39:56.224Z,9.762186
2022-07-25T04:40:56.235Z,9.762186
2022-07-25T04:41:56.204Z,9.762186
2022-07-25T04:42:56.198Z,9.762186
2022-07-25T04:43:56.194Z,9.762186
2022-07-25T04:44:56.173Z,9.762186
2022-07-25T04:45:56.257Z,9.762186
2022-07-25T04:46:56.164Z,9.762186
2022-07-25T04:47:56.155Z,9.762186
2022-07-25T04:48:56.238Z,9.762186
2022-07-25T04:49:56.133Z,9.762186
2022-07-25T04:50:56.144Z,9.762186
2022-07-25T04:51:56.106Z,9.762186
2022-07-25T04:52:56.109Z,9.762186
2022-07-25T04:53:56.092Z,9.762186
2022-07-25T04:54:56.081Z,9.762186
2022-07-25T04:55:56.088Z,9.762186
2022-07-25T04:56:56.065Z,9.762186
2022-07-25T04:57:56.046Z,9.762186
2022-07-25T04:58:56.037Z,9.762186
2022-07-25T04:59:57.046Z,9.762186
2022-07-25T05:00:56.074Z,9.762186
2022-07-25T05:01:56.048Z,9.762186
2022-07-25T05:02:56.006Z,9.762186
2022-07-25T05:03:55.995Z,9.762186
2022-07-25T05:04:55.983Z,9.762186
2022-07-25T05:05:55.981Z,9.762186
2022-07-25T05:06:55.968Z,9.762186
2022-07-25T05:07:55.982Z,9.762186
2022-07-25T05:08:55.941Z,9.762186
2022-07-25T05:09:55.937Z,9.762186
2022-07-25T05:10:55.928Z,9.762186
2022-07-25T05:11:56.644Z,9.762186
2022-07-25T05:12:56.907Z,9.762186
2022-07-25T05:13:55.888Z,9.762186
2022-07-25T05:14:55.873Z,9.762186
2022-07-25T05:15:55.940Z,9.762186
2022-07-25T05:16:55.925Z,9.762562
2022-07-25T05:17:55.856Z,9.762500
2022-07-25T05:18:55.841Z,9.762599
2022-07-25T05:19:55.828Z,9.762843
2022-07-25T05:20:55.853Z,9.762559
2022-07-25T05:21:55.815Z,9.762596
2022-07-25T05:22:57.575Z,9.762798
2022-07-25T05:23:55.804Z,9.762827
2022-07-25T05:24:55.805Z,9.762544
2022-07-25T05:25:55.803Z,9.762744
2022-07-25T05:26:55.765Z,9.762742
2022-07-25T05:27:55.765Z,9.762723
2022-07-25T05:28:55.762Z,9.762763
2022-07-25T05:29:55.752Z,9.762677
2022-07-25T05:30:55.915Z,9.762703
2022-07-25T05:31:55.774Z,9.762566
2022-07-25T05:32:56.715Z,9.762565
2022-07-25T05:33:55.871Z,9.762426
2022-07-25T05:34:55.702Z,9.762746
2022-07-25T05:35:55.743Z,9.762692
2022-07-25T05:36:55.720Z,9.762631
2022-07-25T05:37:55.722Z,9.762502
2022-07-25T05:38:55.682Z,9.762773
2022-07-25T05:39:55.735Z,9.762461
2022-07-25T05:40:55.687Z,9.762166
2022-07-25T05:41:55.620Z,9.762495
2022-07-25T05:43:00.800Z,9.762462
2022-07-25T05:43:57.637Z,9.762502
2022-07-25T05:44:55.591Z,9.762547
2022-07-25T05:45:55.603Z,9.762419
2022-07-25T05:46:55.621Z,9.762540
2022-07-25T05:47:55.569Z,9.762656
2022-07-25T05:48:55.571Z,9.762655
2022-07-25T05:49:55.542Z,9.762634
2022-07-25T05:50:55.532Z,9.762648
2022-07-25T05:51:55.554Z,9.762578
2022-07-25T05:52:55.541Z,9.762478
2022-07-25T05:53:55.598Z,9.762230
2022-07-25T05:54:55.518Z,9.762615
2022-07-25T05:55:55.494Z,9.762477
2022-07-25T05:56:55.470Z,9.762554
2022-07-25T05:57:55.456Z,9.762638
2022-07-25T05:58:55.440Z,9.762565
2022-07-25T05:59:55.446Z,9.762730
2022-07-25T06:00:55.439Z,9.762537
2022-07-25T06:01:55.531Z,9.762537
2022-07-25T06:02:55.535Z,9.762537
2022-07-25T06:03:55.435Z,9.762537
2022-07-25T06:04:55.458Z,9.762537
2022-07-25T06:05:55.434Z,9.762537
2022-07-25T06:06:55.399Z,9.762537
2022-07-25T06:07:55.441Z,9.762874
2022-07-25T06:08:55.423Z,9.762600
2022-07-25T06:09:55.382Z,9.762607
2022-07-25T06:10:56.417Z,9.762646
2022-07-25T06:12:00.621Z,9.762588
2022-07-25T06:12:57.337Z,9.762671
2022-07-25T06:13:55.395Z,9.762677
2022-07-25T06:14:55.311Z,9.762772
2022-07-25T06:15:55.375Z,9.762840
2022-07-25T06:16:55.353Z,9.762653
2022-07-25T06:17:55.301Z,9.762590
2022-07-25T06:18:55.316Z,9.762639
2022-07-25T06:19:55.265Z,9.762525
2022-07-25T06:20:55.305Z,9.762596
2022-07-25T06:21:55.254Z,9.762871
2022-07-25T06:22:55.245Z,9.762687
2022-07-25T06:23:55.216Z,9.762534
2022-07-25T06:24:55.205Z,9.762647
2022-07-25T06:25:55.278Z,9.762644
2022-07-25T06:26:55.184Z,9.762685
2022-07-25T06:27:55.204Z,9.762678
2022-07-25T06:28:55.185Z,9.762673
2022-07-25T06:29:55.165Z,9.762556
2022-07-25T06:30:55.221Z,9.762657
2022-07-25T06:31:55.181Z,9.762549
2022-07-25T06:32:55.138Z,9.762591
2022-07-25T06:33:55.187Z,9.762539
2022-07-25T06:34:55.139Z,9.762649
2022-07-25T06:35:55.104Z,9.762566
2022-07-25T06:36:55.093Z,9.762351
2022-07-25T06:37:55.087Z,9.762415
2022-07-25T06:38:55.167Z,9.762448
2022-07-25T06:39:55.104Z,9.762469
2022-07-25T06:40:55.128Z,9.762675
2022-07-25T06:41:55.104Z,9.762486
2022-07-25T06:42:55.073Z,9.762525
2022-07-25T06:43:55.037Z,9.762488
2022-07-25T06:44:55.031Z,9.762460
2022-07-25T06:45:55.013Z,9.762382
2022-07-25T06:46:55.058Z,9.762475
2022-07-25T06:47:54.986Z,9.762448
2022-07-25T06:48:55.027Z,9.762525
2022-07-25T06:49:55.048Z,9.762741
2022-07-25T06:50:54.992Z,9.762629
2022-07-25T06:51:55.007Z,9.762671
2022-07-25T06:52:54.979Z,9.762582
2022-07-25T06:53:54.985Z,9.762582
2022-07-25T06:54:54.948Z,9.762563
2022-07-25T06:55:54.953Z,9.762726
2022-07-25T06:56:54.988Z,9.762595
2022-07-25T06:57:55.022Z,9.762653
2022-07-25T06:58:54.921Z,9.762766
2022-07-25T06:59:54.878Z,9.762712
2022-07-25T07:00:55.923Z,9.762712
2022-07-25T07:01:54.913Z,9.762712
2022-07-25T07:02:54.927Z,9.762712
2022-07-25T07:03:55.060Z,9.762712
2022-07-25T07:04:54.849Z,9.762712
2022-07-25T07:05:54.824Z,9.762712
2022-07-25T07:06:54.863Z,9.762712
2022-07-25T07:07:54.842Z,9.762712
2022-07-25T07:08:54.847Z,9.762712
2022-07-25T07:09:54.837Z,9.762712
2022-07-25T07:10:54.858Z,9.762712
2022-07-25T07:12:01.607Z,9.762712
2022-07-25T07:12:58.566Z,9.762712
2022-07-25T07:13:55.435Z,9.762712
2022-07-25T07:14:54.904Z,9.762712
2022-07-25T07:15:54.881Z,9.762712
2022-07-25T07:16:54.849Z,9.762712
2022-07-25T07:17:54.735Z,9.762712
2022-07-25T07:18:54.732Z,9.762712
2022-07-25T07:19:54.735Z,9.762712
2022-07-25T07:20:54.704Z,9.762712
2022-07-25T07:21:54.718Z,9.762712
2022-07-25T07:22:54.711Z,9.762712
2022-07-25T07:23:54.690Z,9.762712
2022-07-25T07:24:54.683Z,9.762712
2022-07-25T07:25:54.636Z,9.762712
2022-07-25T07:26:54.679Z,9.762712
2022-07-25T07:27:54.659Z,9.762712
2022-07-25T07:28:54.640Z,9.762712
2022-07-25T07:29:54.607Z,9.762712
2022-07-25T07:31:56.671Z,9.762712
2022-07-25T07:32:54.628Z,9.762712
2022-07-25T07:33:55.589Z,9.762712
2022-07-25T07:34:54.592Z,9.762712
2022-07-25T07:35:54.551Z,9.762712
2022-07-25T07:36:54.621Z,9.762712
2022-07-25T07:37:54.577Z,9.762712
2022-07-25T07:38:54.604Z,9.762963
2022-07-25T07:39:54.509Z,9.762948
2022-07-25T07:40:54.505Z,9.762884
2022-07-25T07:41:55.562Z,9.762701
2022-07-25T07:42:55.533Z,9.762651
2022-07-25T07:43:54.527Z,9.762487
2022-07-25T07:44:54.496Z,9.762706
2022-07-25T07:45:54.484Z,9.762745
2022-07-25T07:46:54.584Z,9.762789
2022-07-25T07:47:54.492Z,9.762837
2022-07-25T07:48:54.543Z,9.762823
2022-07-25T07:49:54.435Z,9.762603
2022-07-25T07:50:54.581Z,9.762789
2022-07-25T07:51:54.453Z,9.762871
2022-07-25T07:52:54.445Z,9.762861
2022-07-25T07:53:55.236Z,9.762897
2022-07-25T07:54:59.208Z,9.762971
2022-07-25T07:55:56.353Z,9.763062
2022-07-25T07:56:54.377Z,9.762946
2022-07-25T07:57:54.387Z,9.762805
2022-07-25T07:58:54.385Z,9.762842
2022-07-25T07:59:54.346Z,9.762762
2022-07-25T08:00:54.306Z,9.762811
2022-07-25T08:01:54.368Z,9.762916
2022-07-25T08:02:54.371Z,9.762899
2022-07-25T08:03:54.321Z,9.762804
2022-07-25T08:04:54.344Z,9.762697
2022-07-25T08:05:54.282Z,9.762765
2022-07-25T08:06:54.302Z,9.762650
2022-07-25T08:07:54.258Z,9.762602
2022-07-25T08:08:54.276Z,9.762524
2022-07-25T08:09:54.300Z,9.762387
2022-07-25T08:10:58.610Z,9.762242
2022-07-25T08:11:55.236Z,9.762524
2022-07-25T08:12:54.258Z,9.762676
2022-07-25T08:13:54.231Z,9.762661
2022-07-25T08:14:54.212Z,9.762718
2022-07-25T08:15:54.281Z,9.762721
2022-07-25T08:16:54.186Z,9.762651
2022-07-25T08:17:54.153Z,9.762688
2022-07-25T08:18:54.154Z,9.762556
2022-07-25T08:19:54.174Z,9.762556
2022-07-25T08:20:54.130Z,9.763100
2022-07-25T08:21:54.165Z,9.763019
2022-07-25T08:22:56.688Z,9.762734
2022-07-25T08:23:55.106Z,9.762623
2022-07-25T08:24:54.098Z,9.762623
2022-07-25T08:25:54.097Z,9.762623
2022-07-25T08:26:54.096Z,9.763000
2022-07-25T08:27:54.102Z,9.763000
2022-07-25T08:29:17.110Z,9.762733
2022-07-25T08:29:56.135Z,9.762733
2022-07-25T08:30:55.068Z,9.762828
2022-07-25T08:31:54.094Z,9.762777
2022-07-25T08:32:54.075Z,9.762888
2022-07-25T08:33:54.020Z,9.762728
2022-07-25T08:34:54.014Z,9.762548
2022-07-25T08:35:54.055Z,9.762815
2022-07-25T08:36:54.102Z,9.762809
2022-07-25T08:37:54.019Z,9.762605
2022-07-25T08:38:54.025Z,9.762598
2022-07-25T08:39:54.024Z,9.762598
2022-07-25T08:40:54.027Z,9.762765
2022-07-25T08:41:54.028Z,9.762859
2022-07-25T08:42:53.924Z,9.762762
2022-07-25T08:43:54.006Z,9.762764
2022-07-25T08:44:53.940Z,9.762800
2022-07-25T08:45:54.019Z,9.762682
2022-07-25T08:46:54.036Z,9.762654
2022-07-25T08:47:53.910Z,9.762952
2022-07-25T08:48:54.006Z,9.762687
2022-07-25T08:49:53.978Z,9.762813
2022-07-25T08:50:54.713Z,9.762707
2022-07-25T08:51:54.611Z,9.762651
2022-07-25T08:53:09.943Z,9.762681
2022-07-25T08:53:55.838Z,9.762762
2022-07-25T08:54:53.817Z,9.762850
2022-07-25T08:55:53.851Z,9.762827
2022-07-25T08:56:53.850Z,9.762814
2022-07-25T08:57:53.834Z,9.762713
2022-07-25T08:58:53.781Z,9.762874
2022-07-25T08:59:53.780Z,9.762792
2022-07-25T09:00:53.885Z,9.762795
2022-07-25T09:01:53.879Z,9.762755
2022-07-25T09:02:53.853Z,9.762869
2022-07-25T09:03:53.826Z,9.762821
2022-07-25T09:04:53.737Z,9.762657
2022-07-25T09:05:53.735Z,9.762856
2022-07-25T09:06:53.695Z,9.762839
2022-07-25T09:07:53.740Z,9.762815
2022-07-25T09:08:53.690Z,9.762793
2022-07-25T09:09:53.670Z,9.762897
2022-07-25T09:10:53.660Z,9.762769
2022-07-25T09:11:53.674Z,9.762786
2022-07-25T09:12:53.727Z,9.762748
2022-07-25T09:13:53.682Z,9.762783
2022-07-25T09:14:54.418Z,9.762737
2022-07-25T09:15:53.764Z,9.762613
2022-07-25T09:16:53.619Z,9.762645
2022-07-25T09:17:53.641Z,9.762678
2022-07-25T09:18:53.612Z,9.762851
2022-07-25T09:19:53.592Z,9.762793
2022-07-25T09:20:53.587Z,9.762717
2022-07-25T09:21:53.590Z,9.762831
2022-07-25T09:22:53.632Z,9.762670
2022-07-25T09:23:53.613Z,9.762743
2022-07-25T09:24:53.585Z,9.762745
2022-07-25T09:25:53.583Z,9.762693
2022-07-25T09:26:53.560Z,9.762590
2022-07-25T09:27:53.654Z,9.762753
2022-07-25T09:28:53.580Z,9.762802
2022-07-25T09:29:53.561Z,9.762729
2022-07-25T09:30:53.559Z,9.762615
2022-07-25T09:31:53.506Z,9.762749
2022-07-25T09:32:53.522Z,9.762741
2022-07-25T09:33:53.521Z,9.762761
2022-07-25T09:34:53.475Z,9.762723
2022-07-25T09:35:53.520Z,9.762750
2022-07-25T09:36:53.452Z,9.762734
2022-07-25T09:37:53.456Z,9.762800
2022-07-25T09:38:53.454Z,9.762697
2022-07-25T09:39:53.416Z,9.762663
2022-07-25T09:40:53.466Z,9.762624
2022-07-25T09:41:53.467Z,9.762706
2022-07-25T09:42:53.476Z,9.762686
2022-07-25T09:43:53.407Z,9.762708
2022-07-25T09:44:54.383Z,9.762704
2022-07-25T09:45:53.416Z,9.762657
2022-07-25T09:46:53.361Z,9.762673
2022-07-25T09:47:53.415Z,9.762680
2022-07-25T09:48:53.412Z,9.762774
2022-07-25T09:49:53.378Z,9.762728
2022-07-25T09:50:53.323Z,9.762742
2022-07-25T09:51:53.332Z,9.762774
2022-07-25T09:52:53.365Z,9.762590
2022-07-25T09:53:53.314Z,9.762561
2022-07-25T09:54:53.301Z,9.762648
2022-07-25T09:55:53.286Z,9.762925
2022-07-25T09:56:53.288Z,9.762698
2022-07-25T09:57:53.294Z,9.762571
2022-07-25T09:58:53.236Z,9.762731
2022-07-25T09:59:53.296Z,9.762750
2022-07-25T10:00:53.263Z,9.762625
2022-07-25T10:01:53.246Z,9.762574
2022-07-25T10:02:53.342Z,9.762619
2022-07-25T10:03:53.232Z,9.762576
2022-07-25T10:04:53.215Z,9.762604
2022-07-25T10:05:53.216Z,9.762674
2022-07-25T10:06:53.201Z,9.762539
2022-07-25T10:07:53.157Z,9.762565
2022-07-25T10:08:53.146Z,9.762737
2022-07-25T10:09:53.139Z,9.762670
2022-07-25T10:10:53.122Z,9.762480
2022-07-25T10:11:53.123Z,9.762713
2022-07-25T10:12:53.155Z,9.762712
2022-07-25T10:13:53.124Z,9.762383
2022-07-25T10:14:53.174Z,9.762577
2022-07-25T10:15:53.151Z,9.762614
2022-07-25T10:16:53.200Z,9.762580
2022-07-25T10:17:53.128Z,9.762604
2022-07-25T10:18:53.075Z,9.762592
2022-07-25T10:19:58.309Z,9.762491
2022-07-25T10:20:55.071Z,9.762603
2022-07-25T10:21:53.021Z,9.762452
2022-07-25T10:22:57.358Z,9.763080
2022-07-25T10:23:54.022Z,9.762897
2022-07-25T10:24:52.987Z,9.762528
2022-07-25T10:25:53.025Z,9.762637
2022-07-25T10:26:53.000Z,9.762718
2022-07-25T10:27:52.973Z,9.761992
2022-07-25T10:28:53.000Z,9.762258
2022-07-25T10:29:52.971Z,9.762167
2022-07-25T10:30:53.105Z,9.762532
2022-07-25T10:31:52.934Z,9.762844
2022-07-25T10:32:52.971Z,9.762651
2022-07-25T10:33:53.192Z,9.762652
2022-07-25T10:34:52.978Z,9.762585
2022-07-25T10:35:52.916Z,9.762558
2022-07-25T10:36:52.892Z,9.762607
2022-07-25T10:37:52.948Z,9.762562
2022-07-25T10:38:52.956Z,9.762665
2022-07-25T10:39:52.883Z,9.762677
2022-07-25T10:40:52.860Z,9.762685
2022-07-25T10:41:52.817Z,9.762511
2022-07-25T10:42:52.871Z,9.762772
2022-07-25T10:43:52.847Z,9.762622
2022-07-25T10:44:52.827Z,9.762649
2022-07-25T10:45:52.864Z,9.762520
2022-07-25T10:46:52.829Z,9.762898
2022-07-25T10:47:52.761Z,9.762959
2022-07-25T10:48:52.953Z,9.762778
2022-07-25T10:50:15.171Z,9.762775
2022-07-25T10:50:56.283Z,9.762708
2022-07-25T10:51:53.805Z,9.762734
2022-07-25T10:52:52.787Z,9.762707
2022-07-25T10:53:52.729Z,9.762779
2022-07-25T10:54:52.733Z,9.762885
2022-07-25T10:56:05.355Z,9.762950
2022-07-25T10:56:54.698Z,9.763062
2022-07-25T10:58:16.228Z,9.763061
2022-07-25T10:58:54.701Z,9.763170
2022-07-25T10:59:53.703Z,9.763028
2022-07-25T11:00:52.751Z,9.763170
2022-07-25T11:01:52.747Z,9.762755
2022-07-25T11:02:52.777Z,9.762737
2022-07-25T11:03:52.605Z,9.762779
2022-07-25T11:04:52.649Z,9.762815
2022-07-25T11:05:52.643Z,9.762741
2022-07-25T11:06:52.602Z,9.762572
2022-07-25T11:08:18.853Z,9.762558
2022-07-25T11:08:54.605Z,9.762467
2022-07-25T11:09:52.551Z,9.762555
2022-07-25T11:10:53.801Z,9.762682
2022-07-25T11:11:52.606Z,9.762577
2022-07-25T11:12:52.579Z,9.762861
2022-07-25T11:13:53.568Z,9.762898
2022-07-25T11:14:52.493Z,9.762877
2022-07-25T11:15:52.542Z,9.763055
2022-07-25T11:16:52.603Z,9.762873
2022-07-25T11:17:52.490Z,9.762401
2022-07-25T11:18:52.466Z,9.762656
2022-07-25T11:19:52.496Z,9.762570
2022-07-25T11:20:52.534Z,9.762378
2022-07-25T11:21:52.417Z,9.762589
2022-07-25T11:22:52.539Z,9.762622
2022-07-25T11:23:52.485Z,9.762594
2022-07-25T11:24:52.384Z,9.762821
2022-07-25T11:25:52.442Z,9.762956
2022-07-25T11:26:52.389Z,9.763010
2022-07-25T11:27:52.396Z,9.763511
2022-07-25T11:28:52.380Z,9.763893
2022-07-25T11:29:52.357Z,9.762790
2022-07-25T11:30:52.359Z,9.762820
2022-07-25T11:31:53.439Z,9.762689
2022-07-25T11:32:52.334Z,9.762806
2022-07-25T11:33:52.360Z,9.762771
2022-07-25T11:34:52.392Z,9.762698
2022-07-25T11:35:52.330Z,9.762797
2022-07-25T11:36:52.285Z,9.762934
2022-07-25T11:37:52.266Z,9.762846
2022-07-25T11:38:52.302Z,9.762846
2022-07-25T11:39:53.747Z,9.763044
2022-07-25T11:40:52.239Z,9.763037
2022-07-25T11:41:52.384Z,9.762938
2022-07-25T11:42:52.262Z,9.762802
2022-07-25T11:43:52.319Z,9.762804
2022-07-25T11:44:52.194Z,9.762780
2022-07-25T11:45:52.288Z,9.762788